createdAt,value
2018-06-08T00:01:52.512Z,13.53
2018-06-08T00:04:22.348Z,13.47
2018-06-08T00:06:52.135Z,13.57
2018-06-08T00:09:21.993Z,12.80
2018-06-08T00:11:51.776Z,13.20
2018-06-08T00:14:21.599Z,13.33
2018-06-08T00:16:51.400Z,13.50
2018-06-08T00:19:21.243Z,12.77
2018-06-08T00:21:51.071Z,13.13
2018-06-08T00:24:20.896Z,13.00
2018-06-08T00:26:50.684Z,13.80
2018-06-08T00:29:20.515Z,13.70
2018-06-08T00:31:50.318Z,13.47
2018-06-08T00:34:20.150Z,13.47
2018-06-08T00:36:50.035Z,13.03
2018-06-08T00:39:19.887Z,13.73
2018-06-08T00:41:49.751Z,13.77
2018-06-08T00:44:19.552Z,13.87
2018-06-08T00:46:49.383Z,14.03
2018-06-08T00:49:19.187Z,14.20
2018-06-08T00:51:49.033Z,15.07
2018-06-08T00:54:18.857Z,15.03
2018-06-08T00:56:59.588Z,16.90
2018-06-08T00:59:29.411Z,16.87
2018-06-08T01:01:59.244Z,15.80
2018-06-08T01:04:29.040Z,17.00
2018-06-08T01:06:58.902Z,17.03
2018-06-08T01:09:28.679Z,18.10
2018-06-08T01:11:58.517Z,17.33
2018-06-08T01:14:33.818Z,18.60
2018-06-08T01:17:03.683Z,18.83
2018-06-08T01:19:34.093Z,19.40
2018-06-08T01:22:04.108Z,19.73
2018-06-08T01:24:34.025Z,19.47
2018-06-08T01:27:03.864Z,19.83
2018-06-08T01:29:33.707Z,20.63
2018-06-08T01:32:03.595Z,19.87
2018-06-08T01:34:33.472Z,19.63
2018-06-08T01:37:03.524Z,20.67
2018-06-08T01:39:33.343Z,20.80
2018-06-08T01:42:03.190Z,19.50
2018-06-08T01:44:32.980Z,20.80
2018-06-08T01:47:02.810Z,19.60
2018-06-08T01:49:32.612Z,19.43
2018-06-08T01:52:02.458Z,19.17
2018-06-08T01:54:32.253Z,19.63
2018-06-08T01:57:02.079Z,19.93
2018-06-08T01:59:32.098Z,19.07
2018-06-08T02:02:01.900Z,21.07
2018-06-08T02:04:31.767Z,18.43
2018-06-08T02:07:01.556Z,19.23
2018-06-08T02:09:31.460Z,19.40
2018-06-08T02:12:01.240Z,18.93
2018-06-08T02:14:31.115Z,19.73
2018-06-08T02:17:00.900Z,19.37
2018-06-08T02:19:30.756Z,18.37
2018-06-08T02:22:00.610Z,19.83
2018-06-08T02:24:30.473Z,18.10
2018-06-08T02:27:00.311Z,18.43
2018-06-08T02:29:30.173Z,18.00
2018-06-08T02:32:00.008Z,17.43
2018-06-08T02:34:29.847Z,17.67
2018-06-08T02:36:59.686Z,18.60
2018-06-08T02:39:29.559Z,17.93
2018-06-08T02:41:59.393Z,17.47
2018-06-08T02:44:29.184Z,17.60
2018-06-08T02:46:59.048Z,16.73
2018-06-08T02:49:28.870Z,17.93
2018-06-08T02:51:58.735Z,18.07
2018-06-08T02:54:28.561Z,17.77
2018-06-08T02:56:58.419Z,18.90
2018-06-08T02:59:28.208Z,18.23
2018-06-08T03:01:58.025Z,18.93
2018-06-08T03:04:27.851Z,18.53
2018-06-08T03:06:57.627Z,18.53
2018-06-08T03:09:27.476Z,19.10
2018-06-08T03:11:57.324Z,19.07
2018-06-08T03:14:27.144Z,19.23
2018-06-08T03:16:56.956Z,18.70
2018-06-08T03:19:26.886Z,19.53
2018-06-08T03:21:56.727Z,18.20
2018-06-08T03:24:26.567Z,18.40
2018-06-08T03:26:56.430Z,19.07
2018-06-08T03:29:26.292Z,18.47
2018-06-08T03:31:56.068Z,19.30
2018-06-08T03:34:25.885Z,18.93
2018-06-08T03:36:55.680Z,19.40
2018-06-08T03:39:25.509Z,18.40
2018-06-08T03:41:55.344Z,18.90
2018-06-08T03:44:25.239Z,19.03
2018-06-08T03:46:55.068Z,18.30
2018-06-08T03:49:24.897Z,19.13
2018-06-08T03:51:54.704Z,18.37
2018-06-08T03:54:24.485Z,16.93
2018-06-08T03:56:54.366Z,17.87
2018-06-08T03:59:24.221Z,16.33
2018-06-08T04:01:54.016Z,16.63
2018-06-08T04:04:23.896Z,17.50
2018-06-08T04:06:53.709Z,17.13
2018-06-08T04:09:23.572Z,17.23
2018-06-08T04:11:53.404Z,16.70
2018-06-08T04:14:23.268Z,17.47
2018-06-08T04:16:53.108Z,19.57
2018-06-08T04:19:22.903Z,17.17
2018-06-08T04:21:52.747Z,17.50
2018-06-08T04:24:22.562Z,17.43
2018-06-08T04:26:52.421Z,18.97
2018-06-08T04:29:22.236Z,21.97
2018-06-08T04:31:52.092Z,20.67
2018-06-08T04:34:21.900Z,17.90
2018-06-08T04:36:51.832Z,18.53
2018-06-08T04:39:21.668Z,19.67
2018-06-08T04:41:51.524Z,17.73
2018-06-08T04:44:21.388Z,17.00
2018-06-08T04:46:51.219Z,16.60
2018-06-08T04:49:21.078Z,16.70
2018-06-08T04:51:50.884Z,17.00
2018-06-08T04:54:20.773Z,15.83
2018-06-08T04:56:50.681Z,16.30
2018-06-08T04:59:20.876Z,16.03
2018-06-08T05:01:50.764Z,15.47
2018-06-08T05:04:20.664Z,15.93
2018-06-08T05:06:50.580Z,14.60
2018-06-08T05:09:20.440Z,13.17
2018-06-08T05:11:50.304Z,13.57
2018-06-08T05:14:20.107Z,13.77
2018-06-08T05:16:49.982Z,13.73
2018-06-08T05:19:19.881Z,12.90
2018-06-08T05:21:49.768Z,13.30
2018-06-08T05:24:19.637Z,13.37
2018-06-08T05:26:49.485Z,11.37
2018-06-08T05:29:19.682Z,13.50
2018-06-08T05:31:49.737Z,14.60
2018-06-08T05:34:21.091Z,13.23
2018-06-08T05:36:51.289Z,11.97
2018-06-08T05:39:21.166Z,11.70
2018-06-08T05:41:51.129Z,12.43
2018-06-08T05:44:20.942Z,12.10
2018-06-08T05:46:50.795Z,12.27
2018-06-08T05:49:20.632Z,12.53
2018-06-08T05:51:50.549Z,14.07
2018-06-08T05:54:20.481Z,12.13
2018-06-08T05:56:50.341Z,12.00
2018-06-08T05:59:20.141Z,12.37
2018-06-08T06:01:50.021Z,11.97
2018-06-08T06:04:19.843Z,12.50
2018-06-08T06:06:49.735Z,12.30
2018-06-08T06:09:19.560Z,11.63
2018-06-08T06:11:49.464Z,11.73
2018-06-08T06:14:19.353Z,11.43
2018-06-08T06:16:49.365Z,11.70
2018-06-08T06:19:19.224Z,12.50
2018-06-08T06:21:49.053Z,11.90
2018-06-08T06:24:18.990Z,12.13
2018-06-08T06:26:48.812Z,12.53
2018-06-08T06:29:18.684Z,12.23
2018-06-08T06:31:48.530Z,12.27
2018-06-08T06:34:18.479Z,12.10
2018-06-08T06:36:48.349Z,12.37
2018-06-08T06:39:18.192Z,12.80
2018-06-08T06:41:48.109Z,12.47
2018-06-08T06:44:18.052Z,12.20
2018-06-08T06:46:48.014Z,12.40
2018-06-08T06:49:17.868Z,14.17
2018-06-08T06:51:48.800Z,15.20
2018-06-08T06:54:18.648Z,12.87
2018-06-08T06:56:48.832Z,12.23
2018-06-08T06:59:18.672Z,12.90
2018-06-08T07:01:48.636Z,11.30
2018-06-08T07:04:18.487Z,12.40
2018-06-08T07:06:48.375Z,12.43
2018-06-08T07:09:18.205Z,11.50
2018-06-08T07:11:48.072Z,12.00
2018-06-08T07:14:17.972Z,12.03
2018-06-08T07:16:47.950Z,12.53
2018-06-08T07:19:17.807Z,12.20
2018-06-08T07:21:48.052Z,12.43
2018-06-08T07:24:17.885Z,12.20
2018-06-08T07:26:47.913Z,11.63
2018-06-08T07:29:17.792Z,12.67
2018-06-08T07:31:47.816Z,11.77
2018-06-08T07:34:17.710Z,12.40
2018-06-08T07:36:47.573Z,12.63
2018-06-08T07:39:17.455Z,13.37
2018-06-08T07:41:47.436Z,14.10
2018-06-08T07:44:17.391Z,13.60
2018-06-08T07:46:47.332Z,13.83
2018-06-08T07:49:17.237Z,13.47
2018-06-08T07:51:47.166Z,12.63
2018-06-08T07:54:17.084Z,14.50
2018-06-08T07:56:46.952Z,14.10
2018-06-08T07:59:16.827Z,15.20
2018-06-08T08:01:46.732Z,14.07
2018-06-08T08:04:17.515Z,14.13
2018-06-08T08:06:47.356Z,13.97
2018-06-08T08:09:17.378Z,15.00
2018-06-08T08:11:47.309Z,12.80
2018-06-08T08:14:17.189Z,15.10
2018-06-08T08:16:47.105Z,13.47
2018-06-08T08:19:17.048Z,13.57
2018-06-08T08:21:46.881Z,12.70
2018-06-08T08:24:16.866Z,12.70
2018-06-08T08:26:46.761Z,13.37
2018-06-08T08:29:16.592Z,14.73
2018-06-08T08:31:46.542Z,14.10
2018-06-08T08:34:16.522Z,13.83
2018-06-08T08:36:46.454Z,14.57
2018-06-08T08:39:16.391Z,13.73
2018-06-08T08:41:46.487Z,13.93
2018-06-08T08:44:16.392Z,14.37
2018-06-08T08:46:47.287Z,13.20
2018-06-08T08:49:17.224Z,13.97
2018-06-08T08:51:47.172Z,14.33
2018-06-08T08:54:17.057Z,13.07
2018-06-08T08:56:47.031Z,14.50
2018-06-08T08:59:17.015Z,13.10
2018-06-08T09:01:46.896Z,13.33
2018-06-08T09:04:16.816Z,13.00
2018-06-08T09:06:46.769Z,11.57
2018-06-08T09:09:16.750Z,11.40
2018-06-08T09:11:46.678Z,12.23
2018-06-08T09:14:16.646Z,12.20
2018-06-08T09:16:46.613Z,12.50
2018-06-08T09:19:16.504Z,12.27
2018-06-08T09:21:46.534Z,12.30
2018-06-08T09:24:16.492Z,13.47
2018-06-08T09:26:46.590Z,13.80
2018-06-08T09:29:16.512Z,13.07
2018-06-08T09:31:46.347Z,12.80
2018-06-08T09:34:16.235Z,12.23
2018-06-08T09:36:46.065Z,12.10
2018-06-08T09:39:16.096Z,13.17
2018-06-08T09:41:46.012Z,11.97
2018-06-08T09:44:15.904Z,12.70
2018-06-08T09:46:45.859Z,12.10
2018-06-08T09:49:15.815Z,12.03
2018-06-08T09:51:45.726Z,11.67
2018-06-08T09:54:15.760Z,11.50
2018-06-08T09:56:45.704Z,11.30
2018-06-08T09:59:15.556Z,11.17
2018-06-08T10:01:45.441Z,11.63
2018-06-08T10:04:15.403Z,12.50
2018-06-08T10:06:45.276Z,12.17
2018-06-08T10:09:15.213Z,11.67
2018-06-08T10:11:45.160Z,12.20
2018-06-08T10:14:15.024Z,12.17
2018-06-08T10:16:44.985Z,12.13
2018-06-08T10:19:14.912Z,11.83
2018-06-08T10:21:44.800Z,12.23
2018-06-08T10:24:14.628Z,13.10
2018-06-08T10:26:44.514Z,13.60
2018-06-08T10:29:14.424Z,12.63
2018-06-08T10:31:44.444Z,12.83
2018-06-08T10:34:14.262Z,13.37
2018-06-08T10:36:44.238Z,13.43
2018-06-08T10:39:14.183Z,13.17
2018-06-08T10:41:44.134Z,13.10
2018-06-08T10:44:14.037Z,12.23
2018-06-08T10:46:43.952Z,13.37
2018-06-08T10:49:13.795Z,14.07
2018-06-08T10:51:43.635Z,13.83
2018-06-08T10:54:13.839Z,14.87
2018-06-08T10:56:43.731Z,15.30
2018-06-08T10:59:13.648Z,15.80
2018-06-08T11:01:43.519Z,16.33
2018-06-08T11:04:13.361Z,16.23
2018-06-08T11:06:43.239Z,15.10
2018-06-08T11:09:13.169Z,15.60
2018-06-08T11:11:43.110Z,16.53
2018-06-08T11:14:13.003Z,16.60
2018-06-08T11:16:43.059Z,16.77
2018-06-08T11:19:12.932Z,17.00
2018-06-08T11:21:42.850Z,18.10
2018-06-08T11:24:12.773Z,18.40
2018-06-08T11:26:42.596Z,18.67
2018-06-08T11:29:12.666Z,19.57
2018-06-08T11:31:42.504Z,19.40
2018-06-08T11:34:12.476Z,19.63
2018-06-08T11:36:42.456Z,19.50
2018-06-08T11:39:12.389Z,19.93
2018-06-08T11:41:42.284Z,19.87
2018-06-08T11:44:12.165Z,19.00
2018-06-08T11:46:42.106Z,20.17
2018-06-08T11:49:11.976Z,22.13
2018-06-08T11:51:41.954Z,21.57
2018-06-08T11:54:11.812Z,20.20
2018-06-08T11:56:41.774Z,20.50
2018-06-08T11:59:11.627Z,20.27
2018-06-08T12:01:41.611Z,19.73
2018-06-08T12:04:11.595Z,20.43
2018-06-08T12:06:41.508Z,20.03
2018-06-08T12:09:11.531Z,18.47
2018-06-08T12:11:41.414Z,19.70
2018-06-08T12:14:11.385Z,19.33
2018-06-08T12:16:41.286Z,21.20
2018-06-08T12:19:11.184Z,21.43
2018-06-08T12:21:41.095Z,19.37
2018-06-08T12:24:10.947Z,20.13
2018-06-08T12:26:40.825Z,19.67
2018-06-08T12:29:10.728Z,24.63
2018-06-08T12:31:40.580Z,20.23
2018-06-08T12:34:10.508Z,18.93
2018-06-08T12:36:40.411Z,19.67
2018-06-08T12:39:10.296Z,20.43
2018-06-08T12:41:40.229Z,19.53
2018-06-08T12:44:10.176Z,20.10
2018-06-08T12:46:40.033Z,17.40
2018-06-08T12:49:09.892Z,18.60
2018-06-08T12:51:39.844Z,18.87
2018-06-08T12:54:09.785Z,18.67
2018-06-08T12:56:39.692Z,21.23
2018-06-08T12:59:09.563Z,20.90
2018-06-08T13:01:39.432Z,23.70
2018-06-08T13:04:09.294Z,24.30
2018-06-08T13:06:39.166Z,24.80
2018-06-08T13:09:09.019Z,24.63
2018-06-08T13:11:38.932Z,24.77
2018-06-08T13:14:08.864Z,24.53
2018-06-08T13:16:38.804Z,25.30
2018-06-08T13:19:09.188Z,25.23
2018-06-08T13:21:39.790Z,24.73
2018-06-08T13:24:10.160Z,22.90
2018-06-08T13:26:40.136Z,24.20
2018-06-08T13:29:09.992Z,23.53
2018-06-08T13:31:39.847Z,24.17
2018-06-08T13:34:09.728Z,23.20
2018-06-08T13:36:39.671Z,24.60
2018-06-08T13:39:09.569Z,24.52
2018-06-08T13:41:39.448Z,24.23
2018-06-08T13:44:09.327Z,21.97
2018-06-08T13:46:48.011Z,22.10
2018-06-08T13:49:17.903Z,21.80
2018-06-08T13:51:47.888Z,20.37
2018-06-08T13:54:17.774Z,19.80
2018-06-08T13:56:47.697Z,20.23
2018-06-08T13:59:17.564Z,19.92
2018-06-08T14:01:47.506Z,18.67
2018-06-08T14:04:18.266Z,17.73
2018-06-08T14:06:48.631Z,19.13
2018-06-08T14:09:18.576Z,20.03
2018-06-08T14:11:48.441Z,19.80
2018-06-08T14:14:18.436Z,18.67
2018-06-08T14:16:48.449Z,18.83
2018-06-08T14:19:18.360Z,19.73
2018-06-08T14:21:49.859Z,19.83
2018-06-08T14:24:20.240Z,19.53
2018-06-08T14:26:51.030Z,18.00
2018-06-08T14:29:21.076Z,18.47
2018-06-08T14:31:51.293Z,17.57
2018-06-08T14:34:22.250Z,16.30
2018-06-08T14:36:52.572Z,16.77
2018-06-08T14:39:22.653Z,16.57
2018-06-08T14:41:52.611Z,15.57
2018-06-08T14:44:22.426Z,15.63
2018-06-08T14:46:52.307Z,14.80
2018-06-08T14:49:22.150Z,15.67
2018-06-08T14:51:52.033Z,15.70
2018-06-08T14:54:21.873Z,14.83
2018-06-08T14:56:51.768Z,16.23
2018-06-08T14:59:21.589Z,14.57
2018-06-08T15:01:51.445Z,15.47
2018-06-08T15:04:21.277Z,15.23
2018-06-08T15:06:51.136Z,14.73
2018-06-08T15:09:20.988Z,14.40
2018-06-08T15:11:50.828Z,15.03
2018-06-08T15:14:20.641Z,14.40
2018-06-08T15:16:50.492Z,13.80
2018-06-08T15:19:20.304Z,13.90
2018-06-08T15:21:50.184Z,13.77
2018-06-08T15:24:20.013Z,13.80
2018-06-08T15:26:49.854Z,13.67
2018-06-08T15:29:19.821Z,12.40
2018-06-08T15:31:49.620Z,13.27
2018-06-08T15:34:19.489Z,12.60
2018-06-08T15:36:49.282Z,13.70
2018-06-08T15:39:19.124Z,12.97
2018-06-08T15:41:48.928Z,12.93
2018-06-08T15:44:18.804Z,13.07
2018-06-08T15:46:48.620Z,13.03
2018-06-08T15:49:18.457Z,13.37
2018-06-08T15:51:48.281Z,13.50
2018-06-08T15:54:18.128Z,13.70
2018-06-08T15:56:47.989Z,13.63
2018-06-08T15:59:17.856Z,14.60
2018-06-08T16:01:47.689Z,14.53
2018-06-08T16:04:17.552Z,15.63
2018-06-08T16:06:47.373Z,15.30
2018-06-08T16:09:17.241Z,15.57
2018-06-08T16:11:47.070Z,15.37
2018-06-08T16:14:16.945Z,15.07
2018-06-08T16:16:46.804Z,15.23
2018-06-08T16:19:16.624Z,14.80
2018-06-08T16:21:46.422Z,14.63
2018-06-08T16:24:16.256Z,14.97
2018-06-08T16:26:46.062Z,14.10
2018-06-08T16:29:15.939Z,13.50
2018-06-08T16:31:45.782Z,13.90
2018-06-08T16:34:15.656Z,13.67
2018-06-08T16:36:45.476Z,13.33
2018-06-08T16:39:15.316Z,13.73
2018-06-08T16:41:45.188Z,14.67
2018-06-08T16:44:15.016Z,13.90
2018-06-08T16:46:44.900Z,13.50
2018-06-08T16:49:14.713Z,14.77
2018-06-08T16:51:44.657Z,14.40
2018-06-08T16:54:14.468Z,13.30
2018-06-08T16:56:44.308Z,14.13
2018-06-08T16:59:14.156Z,13.50
2018-06-08T17:01:44.065Z,13.40
2018-06-08T17:04:13.879Z,13.83
2018-06-08T17:06:43.748Z,13.13
2018-06-08T17:09:13.577Z,13.83
2018-06-08T17:11:43.429Z,14.37
2018-06-08T17:14:13.286Z,13.90
2018-06-08T17:16:43.156Z,13.40
2018-06-08T17:19:12.987Z,13.60
2018-06-08T17:21:42.875Z,12.87
2018-06-08T17:24:12.700Z,13.57
2018-06-08T17:26:42.566Z,13.37
2018-06-08T17:29:12.463Z,13.63
2018-06-08T17:31:42.288Z,12.70
2018-06-08T17:34:12.128Z,12.23
2018-06-08T17:36:41.948Z,12.60
2018-06-08T17:39:11.807Z,12.00
2018-06-08T17:41:41.633Z,12.13
2018-06-08T17:44:11.488Z,12.00
2018-06-08T17:46:41.307Z,11.43
2018-06-08T17:49:11.147Z,11.27
2018-06-08T17:51:41.014Z,11.37
2018-06-08T17:54:10.817Z,11.13
2018-06-08T17:56:40.680Z,10.80
2018-06-08T17:59:10.528Z,11.37
2018-06-08T18:01:40.439Z,11.47
2018-06-08T18:04:10.259Z,11.17
2018-06-08T18:06:40.460Z,10.67
2018-06-08T18:09:10.280Z,11.17
2018-06-08T18:11:40.152Z,11.53
2018-06-08T18:14:09.968Z,12.57
2018-06-08T18:16:39.847Z,12.43
2018-06-08T18:19:09.703Z,10.90
2018-06-08T18:21:39.541Z,11.27
2018-06-08T18:24:09.392Z,11.23
2018-06-08T18:26:39.274Z,11.07
2018-06-08T18:29:09.075Z,11.73
2018-06-08T18:31:38.933Z,11.00
2018-06-08T18:34:08.788Z,12.27
2018-06-08T18:36:38.646Z,12.10
2018-06-08T18:39:09.100Z,12.10
2018-06-08T18:41:38.916Z,12.23
2018-06-08T18:44:08.777Z,13.00
2018-06-08T18:46:38.580Z,12.87
2018-06-08T18:49:08.424Z,12.23
2018-06-08T18:51:38.253Z,12.87
2018-06-08T18:54:08.097Z,15.00
2018-06-08T18:56:37.904Z,14.80
2018-06-08T18:59:07.747Z,14.47
2018-06-08T19:01:37.650Z,14.00
2018-06-08T19:04:07.527Z,13.80
2018-06-08T19:06:37.371Z,13.77
2018-06-08T19:09:09.576Z,14.13
2018-06-08T19:11:39.388Z,13.17
2018-06-08T19:14:09.236Z,13.40
2018-06-08T19:16:39.095Z,14.00
2018-06-08T19:19:08.900Z,13.40
2018-06-08T19:21:38.744Z,14.77
2018-06-08T19:24:08.618Z,14.53
2018-06-08T19:26:38.432Z,14.13
2018-06-08T19:29:08.312Z,13.97
2018-06-08T19:31:38.175Z,14.30
2018-06-08T19:34:08.068Z,13.50
2018-06-08T19:36:37.930Z,14.03
2018-06-08T19:39:09.523Z,14.10
2018-06-08T19:41:39.351Z,13.30
2018-06-08T19:44:09.188Z,13.57
2018-06-08T19:46:39.019Z,13.13
2018-06-08T19:49:08.859Z,14.70
2018-06-08T19:51:38.727Z,14.60
2018-06-08T19:54:08.560Z,14.53
2018-06-08T19:56:38.393Z,14.90
2018-06-08T19:59:08.196Z,13.90
2018-06-08T20:01:38.024Z,13.97
2018-06-08T20:04:07.849Z,14.50
2018-06-08T20:06:37.684Z,14.23
2018-06-08T20:09:08.668Z,15.50
2018-06-08T20:11:38.513Z,14.70
2018-06-08T20:14:08.396Z,14.30
2018-06-08T20:16:38.214Z,14.83
2018-06-08T20:19:08.121Z,15.03
2018-06-08T20:21:38.003Z,15.00
2018-06-08T20:24:07.804Z,14.17
2018-06-08T20:26:37.632Z,14.43
2018-06-08T20:29:07.441Z,13.90
2018-06-08T20:31:37.299Z,14.50
2018-06-08T20:34:07.234Z,13.53
2018-06-08T20:36:37.088Z,14.60
2018-06-08T20:39:08.103Z,15.30
2018-06-08T20:41:37.940Z,14.63
2018-06-08T20:44:07.744Z,15.23
2018-06-08T20:46:37.647Z,14.87
2018-06-08T20:49:07.471Z,14.60
2018-06-08T20:51:37.313Z,13.20
2018-06-08T20:54:07.360Z,13.57
2018-06-08T20:56:37.229Z,14.00
2018-06-08T20:59:07.107Z,13.57
2018-06-08T21:01:36.940Z,13.63
2018-06-08T21:04:06.755Z,14.13
2018-06-08T21:06:36.604Z,13.33
2018-06-08T21:09:07.503Z,13.27
2018-06-08T21:11:37.351Z,13.40
2018-06-08T21:14:07.216Z,13.57
2018-06-08T21:16:37.049Z,13.87
2018-06-08T21:19:06.912Z,13.53
2018-06-08T21:21:36.802Z,14.10
2018-06-08T21:24:06.608Z,13.40
2018-06-08T21:26:37.273Z,13.37
2018-06-08T21:29:07.071Z,14.20
2018-06-08T21:31:36.949Z,13.57
2018-06-08T21:34:06.874Z,13.50
2018-06-08T21:36:36.839Z,13.50
2018-06-08T21:39:07.494Z,13.70
2018-06-08T21:41:37.343Z,13.93
2018-06-08T21:44:07.176Z,13.80
2018-06-08T21:46:37.060Z,14.00
2018-06-08T21:49:06.889Z,14.60
2018-06-08T21:51:36.755Z,13.83
2018-06-08T21:54:06.624Z,14.60
2018-06-08T21:56:36.459Z,14.67
2018-06-08T21:59:06.260Z,14.87
2018-06-08T22:01:36.114Z,14.40
2018-06-08T22:04:06.081Z,13.87
2018-06-08T22:06:35.938Z,14.47
2018-06-08T22:09:07.394Z,14.47
2018-06-08T22:11:37.205Z,14.63
2018-06-08T22:14:07.052Z,16.00
2018-06-08T22:16:36.880Z,15.03
2018-06-08T22:19:06.768Z,14.40
2018-06-08T22:21:36.596Z,14.63
2018-06-08T22:24:06.470Z,13.77
2018-06-08T22:26:36.285Z,13.73
2018-06-08T22:29:06.147Z,13.93
2018-06-08T22:31:35.987Z,13.47
2018-06-08T22:34:05.922Z,13.80
2018-06-08T22:36:35.755Z,13.83
2018-06-08T22:39:07.619Z,14.17
2018-06-08T22:41:37.417Z,14.37
2018-06-08T22:44:07.244Z,14.60
2018-06-08T22:46:37.080Z,14.67
2018-06-08T22:49:06.897Z,14.70
2018-06-08T22:51:36.779Z,15.53
2018-06-08T22:54:06.620Z,15.60
2018-06-08T22:56:36.543Z,15.80
2018-06-08T22:59:06.352Z,16.20
2018-06-08T23:01:36.244Z,15.30
2018-06-08T23:04:06.156Z,15.63
2018-06-08T23:06:36.000Z,15.77
2018-06-08T23:09:08.236Z,17.33
2018-06-08T23:11:38.194Z,17.20
2018-06-08T23:14:08.044Z,17.63
2018-06-08T23:16:37.906Z,18.30
2018-06-08T23:19:07.733Z,17.43
2018-06-08T23:21:37.671Z,18.03
2018-06-08T23:24:07.548Z,18.03
2018-06-08T23:26:37.393Z,18.30
2018-06-08T23:29:07.215Z,18.30
2018-06-08T23:31:37.053Z,18.03
2018-06-08T23:34:06.837Z,20.67
2018-06-08T23:36:36.660Z,20.17
2018-06-08T23:39:08.710Z,20.03
2018-06-08T23:41:38.540Z,20.00
2018-06-08T23:44:08.381Z,18.97
2018-06-08T23:46:38.172Z,20.57
2018-06-08T23:49:08.049Z,19.30
2018-06-08T23:51:37.849Z,19.43
2018-06-08T23:54:07.706Z,19.60
2018-06-08T23:56:37.540Z,20.63
2018-06-08T23:59:07.349Z,20.47
